sensor_id;sensor_type;location;lat;lon;timestamp;temperature;humidity
34283;DHT22;20542;49.828;8.746;2022-10-16T00:00:36;15.90;99.90
34283;DHT22;20542;49.828;8.746;2022-10-16T00:03:03;15.90;99.90
34283;DHT22;20542;49.828;8.746;2022-10-16T00:05:29;15.90;99.90
34283;DHT22;20542;49.828;8.746;2022-10-16T00:07:54;15.90;99.90
34283;DHT22;20542;49.828;8.746;2022-10-16T00:10:20;15.80;99.90
34283;DHT22;20542;49.828;8.746;2022-10-16T00:12:46;15.80;99.90
34283;DHT22;20542;49.828;8.746;2022-10-16T00:15:12;15.80;99.90
34283;DHT22;20542;49.828;8.746;2022-10-16T00:17:37;15.80;99.90
34283;DHT22;20542;49.828;8.746;2022-10-16T00:20:03;15.80;99.90
34283;DHT22;20542;49.828;8.746;2022-10-16T00:22:29;15.80;99.90
34283;DHT22;20542;49.828;8.746;2022-10-16T00:24:54;15.80;99.90
34283;DHT22;20542;49.828;8.746;2022-10-16T00:27:20;15.80;99.90
34283;DHT22;20542;49.828;8.746;2022-10-16T00:29:49;15.80;99.90
34283;DHT22;20542;49.828;8.746;2022-10-16T00:32:15;15.80;99.90
34283;DHT22;20542;49.828;8.746;2022-10-16T00:34:41;15.80;99.90
34283;DHT22;20542;49.828;8.746;2022-10-16T00:37:06;15.80;99.90
34283;DHT22;20542;49.828;8.746;2022-10-16T00:39:32;15.70;99.90
34283;DHT22;20542;49.828;8.746;2022-10-16T00:41:57;15.70;99.90
34283;DHT22;20542;49.828;8.746;2022-10-16T00:44:47;15.70;99.90
34283;DHT22;20542;49.828;8.746;2022-10-16T00:47:30;15.60;99.90
34283;DHT22;20542;49.828;8.746;2022-10-16T00:50:18;15.70;99.90
34283;DHT22;20542;49.828;8.746;2022-10-16T00:52:48;15.70;99.90
34283;DHT22;20542;49.828;8.746;2022-10-16T00:55:15;15.70;99.90
34283;DHT22;20542;49.828;8.746;2022-10-16T00:57:42;15.60;99.90
34283;DHT22;20542;49.828;8.746;2022-10-16T01:00:11;15.60;99.90
34283;DHT22;20542;49.828;8.746;2022-10-16T01:02:37;15.60;99.90
34283;DHT22;20542;49.828;8.746;2022-10-16T01:05:04;15.50;99.90
34283;DHT22;20542;49.828;8.746;2022-10-16T01:18:37;15.50;99.90
34283;DHT22;20542;49.828;8.746;2022-10-16T01:21:06;15.50;99.90
34283;DHT22;20542;49.828;8.746;2022-10-16T01:24:08;15.50;99.90
34283;DHT22;20542;49.828;8.746;2022-10-16T01:29:17;15.50;99.90
34283;DHT22;20542;49.828;8.746;2022-10-16T01:31:48;15.50;99.90
34283;DHT22;20542;49.828;8.746;2022-10-16T01:34:19;15.50;99.90
34283;DHT22;20542;49.828;8.746;2022-10-16T01:36:55;15.50;99.90
34283;DHT22;20542;49.828;8.746;2022-10-16T01:39:29;15.50;99.90
34283;DHT22;20542;49.828;8.746;2022-10-16T01:42:06;15.50;99.90
34283;DHT22;20542;49.828;8.746;2022-10-16T01:44:34;15.50;99.90
34283;DHT22;20542;49.828;8.746;2022-10-16T01:47:02;15.50;99.90
34283;DHT22;20542;49.828;8.746;2022-10-16T01:49:33;15.60;99.90
34283;DHT22;20542;49.828;8.746;2022-10-16T01:52:00;15.60;99.90
34283;DHT22;20542;49.828;8.746;2022-10-16T01:54:28;15.60;99.90
34283;DHT22;20542;49.828;8.746;2022-10-16T01:56:57;15.60;99.90
34283;DHT22;20542;49.828;8.746;2022-10-16T01:59:25;15.60;99.90
34283;DHT22;20542;49.828;8.746;2022-10-16T02:01:56;15.60;99.90
34283;DHT22;20542;49.828;8.746;2022-10-16T02:04:34;15.70;99.90
34283;DHT22;20542;49.828;8.746;2022-10-16T02:07:01;15.70;99.90
34283;DHT22;20542;49.828;8.746;2022-10-16T02:09:27;15.70;99.90
34283;DHT22;20542;49.828;8.746;2022-10-16T02:11:54;15.80;99.90
34283;DHT22;20542;49.828;8.746;2022-10-16T02:14:21;15.80;99.90
34283;DHT22;20542;49.828;8.746;2022-10-16T02:16:49;15.80;99.90
34283;DHT22;20542;49.828;8.746;2022-10-16T02:19:17;15.80;99.90
34283;DHT22;20542;49.828;8.746;2022-10-16T02:21:58;15.80;99.90
34283;DHT22;20542;49.828;8.746;2022-10-16T02:24:39;15.80;99.90
34283;DHT22;20542;49.828;8.746;2022-10-16T02:32:34;15.80;99.90
34283;DHT22;20542;49.828;8.746;2022-10-16T02:35:01;15.90;99.90
34283;DHT22;20542;49.828;8.746;2022-10-16T02:37:28;15.80;99.90
34283;DHT22;20542;49.828;8.746;2022-10-16T02:39:55;15.90;99.90
34283;DHT22;20542;49.828;8.746;2022-10-16T02:42:21;15.80;99.90
34283;DHT22;20542;49.828;8.746;2022-10-16T02:44:52;15.80;99.90
34283;DHT22;20542;49.828;8.746;2022-10-16T02:47:18;15.80;99.90
34283;DHT22;20542;49.828;8.746;2022-10-16T02:49:43;15.80;99.90
34283;DHT22;20542;49.828;8.746;2022-10-16T02:52:09;15.70;99.90
34283;DHT22;20542;49.828;8.746;2022-10-16T02:54:34;15.70;99.90
34283;DHT22;20542;49.828;8.746;2022-10-16T02:57:00;15.70;99.90
34283;DHT22;20542;49.828;8.746;2022-10-16T02:59:25;15.70;99.90
34283;DHT22;20542;49.828;8.746;2022-10-16T03:01:51;15.70;99.90
34283;DHT22;20542;49.828;8.746;2022-10-16T03:04:16;15.80;99.90
34283;DHT22;20542;49.828;8.746;2022-10-16T03:06:42;15.80;99.90
34283;DHT22;20542;49.828;8.746;2022-10-16T03:09:07;15.80;99.90
34283;DHT22;20542;49.828;8.746;2022-10-16T03:11:33;15.80;99.90
34283;DHT22;20542;49.828;8.746;2022-10-16T03:13:58;15.80;99.90
34283;DHT22;20542;49.828;8.746;2022-10-16T03:16:24;15.90;99.90
34283;DHT22;20542;49.828;8.746;2022-10-16T03:18:49;15.90;99.90
34283;DHT22;20542;49.828;8.746;2022-10-16T03:21:15;15.90;99.90
34283;DHT22;20542;49.828;8.746;2022-10-16T03:23:41;15.90;99.90
34283;DHT22;20542;49.828;8.746;2022-10-16T03:26:07;15.80;99.90
34283;DHT22;20542;49.828;8.746;2022-10-16T03:28:32;15.80;99.90
34283;DHT22;20542;49.828;8.746;2022-10-16T03:30:58;15.80;99.90
34283;DHT22;20542;49.828;8.746;2022-10-16T03:33:23;15.80;99.90
34283;DHT22;20542;49.828;8.746;2022-10-16T03:35:53;15.90;99.90
34283;DHT22;20542;49.828;8.746;2022-10-16T03:38:19;15.80;99.90
34283;DHT22;20542;49.828;8.746;2022-10-16T03:40:45;15.80;99.90
34283;DHT22;20542;49.828;8.746;2022-10-16T03:43:11;15.80;99.90
34283;DHT22;20542;49.828;8.746;2022-10-16T03:45:36;15.80;99.90
34283;DHT22;20542;49.828;8.746;2022-10-16T03:48:02;15.90;99.90
34283;DHT22;20542;49.828;8.746;2022-10-16T03:50:28;15.90;99.90
34283;DHT22;20542;49.828;8.746;2022-10-16T03:52:54;15.80;99.90
34283;DHT22;20542;49.828;8.746;2022-10-16T03:55:20;15.90;99.90
34283;DHT22;20542;49.828;8.746;2022-10-16T03:57:45;15.90;99.90
34283;DHT22;20542;49.828;8.746;2022-10-16T04:00:12;15.90;99.90
34283;DHT22;20542;49.828;8.746;2022-10-16T04:02:38;15.80;99.90
34283;DHT22;20542;49.828;8.746;2022-10-16T04:05:04;15.90;99.90
34283;DHT22;20542;49.828;8.746;2022-10-16T04:07:29;15.90;99.90
34283;DHT22;20542;49.828;8.746;2022-10-16T04:09:55;15.80;99.90
34283;DHT22;20542;49.828;8.746;2022-10-16T04:12:22;15.80;99.90
34283;DHT22;20542;49.828;8.746;2022-10-16T04:14:48;15.80;99.90
34283;DHT22;20542;49.828;8.746;2022-10-16T04:17:13;15.80;99.90
34283;DHT22;20542;49.828;8.746;2022-10-16T04:19:39;15.80;99.90
34283;DHT22;20542;49.828;8.746;2022-10-16T04:22:04;15.80;99.90
34283;DHT22;20542;49.828;8.746;2022-10-16T04:24:30;15.80;99.90
34283;DHT22;20542;49.828;8.746;2022-10-16T04:26:55;15.80;99.90
34283;DHT22;20542;49.828;8.746;2022-10-16T04:29:21;15.70;99.90
34283;DHT22;20542;49.828;8.746;2022-10-16T04:31:47;15.70;99.90
34283;DHT22;20542;49.828;8.746;2022-10-16T04:34:12;15.70;99.90
34283;DHT22;20542;49.828;8.746;2022-10-16T04:36:38;15.70;99.90
34283;DHT22;20542;49.828;8.746;2022-10-16T04:39:03;15.70;99.90
34283;DHT22;20542;49.828;8.746;2022-10-16T04:41:29;15.80;99.90
34283;DHT22;20542;49.828;8.746;2022-10-16T04:43:54;15.80;99.90
34283;DHT22;20542;49.828;8.746;2022-10-16T04:46:20;15.80;99.90
34283;DHT22;20542;49.828;8.746;2022-10-16T04:48:45;15.80;99.90
34283;DHT22;20542;49.828;8.746;2022-10-16T04:51:12;15.70;99.90
34283;DHT22;20542;49.828;8.746;2022-10-16T04:53:37;15.70;99.90
34283;DHT22;20542;49.828;8.746;2022-10-16T04:56:03;15.60;99.90
34283;DHT22;20542;49.828;8.746;2022-10-16T04:58:29;15.70;99.90
34283;DHT22;20542;49.828;8.746;2022-10-16T05:00:54;15.70;99.90
34283;DHT22;20542;49.828;8.746;2022-10-16T05:03:20;15.70;99.90
34283;DHT22;20542;49.828;8.746;2022-10-16T05:05:46;15.70;99.90
34283;DHT22;20542;49.828;8.746;2022-10-16T05:08:13;15.70;99.90
34283;DHT22;20542;49.828;8.746;2022-10-16T05:10:40;15.70;99.90
34283;DHT22;20542;49.828;8.746;2022-10-16T05:13:06;15.70;99.90
34283;DHT22;20542;49.828;8.746;2022-10-16T05:15:31;15.80;99.90
34283;DHT22;20542;49.828;8.746;2022-10-16T05:17:57;15.70;99.90
34283;DHT22;20542;49.828;8.746;2022-10-16T05:20:23;15.70;99.90
34283;DHT22;20542;49.828;8.746;2022-10-16T05:22:48;15.70;99.90
34283;DHT22;20542;49.828;8.746;2022-10-16T05:25:14;15.70;99.90
34283;DHT22;20542;49.828;8.746;2022-10-16T05:27:40;15.60;99.90
34283;DHT22;20542;49.828;8.746;2022-10-16T05:30:06;15.60;99.90
34283;DHT22;20542;49.828;8.746;2022-10-16T05:32:32;15.60;99.90
34283;DHT22;20542;49.828;8.746;2022-10-16T05:34:57;15.50;99.90
34283;DHT22;20542;49.828;8.746;2022-10-16T05:37:24;15.50;99.90
34283;DHT22;20542;49.828;8.746;2022-10-16T05:39:50;15.50;99.90
34283;DHT22;20542;49.828;8.746;2022-10-16T05:42:15;15.50;99.90
34283;DHT22;20542;49.828;8.746;2022-10-16T05:44:41;15.50;99.90
34283;DHT22;20542;49.828;8.746;2022-10-16T05:47:07;15.40;99.90
34283;DHT22;20542;49.828;8.746;2022-10-16T05:49:32;15.50;99.90
34283;DHT22;20542;49.828;8.746;2022-10-16T05:51:58;15.50;99.90
34283;DHT22;20542;49.828;8.746;2022-10-16T05:54:23;15.50;99.90
34283;DHT22;20542;49.828;8.746;2022-10-16T05:56:49;15.50;99.90
34283;DHT22;20542;49.828;8.746;2022-10-16T05:59:14;15.50;99.90
34283;DHT22;20542;49.828;8.746;2022-10-16T06:01:40;15.50;99.90
34283;DHT22;20542;49.828;8.746;2022-10-16T06:04:05;15.50;99.90
34283;DHT22;20542;49.828;8.746;2022-10-16T06:06:31;15.50;99.90
34283;DHT22;20542;49.828;8.746;2022-10-16T06:08:57;15.50;99.90
34283;DHT22;20542;49.828;8.746;2022-10-16T06:11:28;15.50;99.90
34283;DHT22;20542;49.828;8.746;2022-10-16T06:13:56;15.50;99.90
34283;DHT22;20542;49.828;8.746;2022-10-16T06:16:23;15.50;99.90
34283;DHT22;20542;49.828;8.746;2022-10-16T06:18:54;15.50;99.90
34283;DHT22;20542;49.828;8.746;2022-10-16T06:21:23;15.50;99.90
34283;DHT22;20542;49.828;8.746;2022-10-16T06:23:52;15.50;99.90
34283;DHT22;20542;49.828;8.746;2022-10-16T06:26:20;15.50;99.90
34283;DHT22;20542;49.828;8.746;2022-10-16T06:28:47;15.50;99.90
34283;DHT22;20542;49.828;8.746;2022-10-16T06:31:13;15.50;99.90
34283;DHT22;20542;49.828;8.746;2022-10-16T06:33:39;15.60;99.90
34283;DHT22;20542;49.828;8.746;2022-10-16T06:36:13;15.50;99.90
34283;DHT22;20542;49.828;8.746;2022-10-16T06:38:39;15.60;99.90
34283;DHT22;20542;49.828;8.746;2022-10-16T06:41:06;15.60;99.90
34283;DHT22;20542;49.828;8.746;2022-10-16T06:43:33;15.60;99.90
34283;DHT22;20542;49.828;8.746;2022-10-16T06:46:01;15.60;99.90
34283;DHT22;20542;49.828;8.746;2022-10-16T06:48:27;15.60;99.90
34283;DHT22;20542;49.828;8.746;2022-10-16T06:53:23;15.70;99.90
34283;DHT22;20542;49.828;8.746;2022-10-16T06:55:48;15.70;99.90
34283;DHT22;20542;49.828;8.746;2022-10-16T06:58:14;15.70;99.90
34283;DHT22;20542;49.828;8.746;2022-10-16T07:00:39;15.70;99.90
34283;DHT22;20542;49.828;8.746;2022-10-16T07:03:05;15.70;99.90
34283;DHT22;20542;49.828;8.746;2022-10-16T07:05:30;15.70;99.90
34283;DHT22;20542;49.828;8.746;2022-10-16T07:07:56;15.80;99.90
34283;DHT22;20542;49.828;8.746;2022-10-16T07:10:21;15.90;99.90
34283;DHT22;20542;49.828;8.746;2022-10-16T07:12:49;15.90;99.90
34283;DHT22;20542;49.828;8.746;2022-10-16T07:15:15;16.00;99.90
34283;DHT22;20542;49.828;8.746;2022-10-16T07:17:40;16.00;99.90
34283;DHT22;20542;49.828;8.746;2022-10-16T07:20:06;16.00;99.90
34283;DHT22;20542;49.828;8.746;2022-10-16T07:22:32;16.00;99.90
34283;DHT22;20542;49.828;8.746;2022-10-16T07:24:58;16.00;99.90
34283;DHT22;20542;49.828;8.746;2022-10-16T07:27:23;16.10;99.90
34283;DHT22;20542;49.828;8.746;2022-10-16T07:29:49;16.10;99.90
34283;DHT22;20542;49.828;8.746;2022-10-16T07:32:15;16.10;99.90
34283;DHT22;20542;49.828;8.746;2022-10-16T07:34:40;16.20;99.90
34283;DHT22;20542;49.828;8.746;2022-10-16T07:37:07;16.20;99.90
34283;DHT22;20542;49.828;8.746;2022-10-16T07:39:32;16.30;99.90
34283;DHT22;20542;49.828;8.746;2022-10-16T07:41:58;16.30;99.90
34283;DHT22;20542;49.828;8.746;2022-10-16T07:44:24;16.30;99.90
34283;DHT22;20542;49.828;8.746;2022-10-16T07:46:50;16.40;99.90
34283;DHT22;20542;49.828;8.746;2022-10-16T07:49:15;16.40;99.90
34283;DHT22;20542;49.828;8.746;2022-10-16T07:51:41;16.40;99.90
34283;DHT22;20542;49.828;8.746;2022-10-16T07:54:08;16.50;99.90
34283;DHT22;20542;49.828;8.746;2022-10-16T07:56:34;16.50;99.90
34283;DHT22;20542;49.828;8.746;2022-10-16T07:59:00;16.60;99.90
34283;DHT22;20542;49.828;8.746;2022-10-16T08:01:26;16.50;99.90
34283;DHT22;20542;49.828;8.746;2022-10-16T08:03:52;16.60;99.90
34283;DHT22;20542;49.828;8.746;2022-10-16T08:06:19;16.60;99.90
34283;DHT22;20542;49.828;8.746;2022-10-16T08:08:45;16.70;99.90
34283;DHT22;20542;49.828;8.746;2022-10-16T08:11:11;16.60;99.90
34283;DHT22;20542;49.828;8.746;2022-10-16T08:13:37;16.70;99.90
34283;DHT22;20542;49.828;8.746;2022-10-16T08:16:03;16.80;99.90
34283;DHT22;20542;49.828;8.746;2022-10-16T08:18:36;16.80;99.90
34283;DHT22;20542;49.828;8.746;2022-10-16T08:21:03;16.80;99.90
34283;DHT22;20542;49.828;8.746;2022-10-16T08:23:29;16.80;99.90
34283;DHT22;20542;49.828;8.746;2022-10-16T08:25:56;16.90;99.90
34283;DHT22;20542;49.828;8.746;2022-10-16T08:28:22;16.90;99.90
34283;DHT22;20542;49.828;8.746;2022-10-16T08:30:48;16.90;99.90
34283;DHT22;20542;49.828;8.746;2022-10-16T08:33:14;17.00;99.90
34283;DHT22;20542;49.828;8.746;2022-10-16T08:35:39;17.00;99.90
34283;DHT22;20542;49.828;8.746;2022-10-16T08:38:06;17.00;99.90
34283;DHT22;20542;49.828;8.746;2022-10-16T08:40:33;16.90;99.90
34283;DHT22;20542;49.828;8.746;2022-10-16T08:46:08;16.90;99.90
34283;DHT22;20542;49.828;8.746;2022-10-16T08:48:51;16.80;99.90
34283;DHT22;20542;49.828;8.746;2022-10-16T08:51:29;16.80;99.90
34283;DHT22;20542;49.828;8.746;2022-10-16T08:54:03;16.80;99.90
34283;DHT22;20542;49.828;8.746;2022-10-16T08:56:29;16.80;99.90
34283;DHT22;20542;49.828;8.746;2022-10-16T08:58:57;16.70;99.90
34283;DHT22;20542;49.828;8.746;2022-10-16T09:01:27;16.60;99.90
34283;DHT22;20542;49.828;8.746;2022-10-16T09:04:45;16.60;99.90
34283;DHT22;20542;49.828;8.746;2022-10-16T09:16:27;16.40;99.90
34283;DHT22;20542;49.828;8.746;2022-10-16T09:19:05;16.50;99.90
34283;DHT22;20542;49.828;8.746;2022-10-16T09:21:41;16.50;99.90
34283;DHT22;20542;49.828;8.746;2022-10-16T09:24:13;16.50;99.90
34283;DHT22;20542;49.828;8.746;2022-10-16T09:26:39;16.50;99.90
34283;DHT22;20542;49.828;8.746;2022-10-16T09:29:04;16.60;99.90
34283;DHT22;20542;49.828;8.746;2022-10-16T09:31:30;16.60;99.90
34283;DHT22;20542;49.828;8.746;2022-10-16T09:34:00;16.70;99.90
34283;DHT22;20542;49.828;8.746;2022-10-16T09:36:39;16.80;99.90
34283;DHT22;20542;49.828;8.746;2022-10-16T09:39:08;16.80;99.90
34283;DHT22;20542;49.828;8.746;2022-10-16T09:41:39;16.90;99.90
34283;DHT22;20542;49.828;8.746;2022-10-16T09:44:27;17.00;99.90
34283;DHT22;20542;49.828;8.746;2022-10-16T09:47:14;17.00;99.90
34283;DHT22;20542;49.828;8.746;2022-10-16T09:49:50;17.10;99.90
34283;DHT22;20542;49.828;8.746;2022-10-16T09:52:15;17.20;99.90
34283;DHT22;20542;49.828;8.746;2022-10-16T09:55:34;17.30;99.90
34283;DHT22;20542;49.828;8.746;2022-10-16T09:57:50;17.40;99.90
34283;DHT22;20542;49.828;8.746;2022-10-16T10:00:17;17.50;99.90
34283;DHT22;20542;49.828;8.746;2022-10-16T10:02:43;17.60;99.90
34283;DHT22;20542;49.828;8.746;2022-10-16T10:05:26;17.60;99.90
34283;DHT22;20542;49.828;8.746;2022-10-16T10:07:58;17.60;99.90
34283;DHT22;20542;49.828;8.746;2022-10-16T10:10:27;17.70;99.90
34283;DHT22;20542;49.828;8.746;2022-10-16T10:12:54;17.80;99.90
34283;DHT22;20542;49.828;8.746;2022-10-16T10:15:20;18.00;99.90
34283;DHT22;20542;49.828;8.746;2022-10-16T10:17:56;18.00;99.90
34283;DHT22;20542;49.828;8.746;2022-10-16T10:20:28;18.10;99.90
34283;DHT22;20542;49.828;8.746;2022-10-16T10:22:55;18.30;99.90
34283;DHT22;20542;49.828;8.746;2022-10-16T10:25:51;18.30;99.90
34283;DHT22;20542;49.828;8.746;2022-10-16T10:31:20;18.50;99.90
34283;DHT22;20542;49.828;8.746;2022-10-16T10:40:00;18.90;99.90
34283;DHT22;20542;49.828;8.746;2022-10-16T10:42:33;18.90;99.90
34283;DHT22;20542;49.828;8.746;2022-10-16T10:45:36;19.00;99.90
34283;DHT22;20542;49.828;8.746;2022-10-16T10:50:43;19.00;99.90
34283;DHT22;20542;49.828;8.746;2022-10-16T11:01:33;18.90;99.90
34283;DHT22;20542;49.828;8.746;2022-10-16T11:04:23;18.90;99.90
34283;DHT22;20542;49.828;8.746;2022-10-16T11:06:58;18.90;99.90
34283;DHT22;20542;49.828;8.746;2022-10-16T11:09:30;18.90;99.90
34283;DHT22;20542;49.828;8.746;2022-10-16T11:14:47;19.00;99.90
34283;DHT22;20542;49.828;8.746;2022-10-16T11:20:24;19.10;99.90
34283;DHT22;20542;49.828;8.746;2022-10-16T11:22:55;19.20;99.90
34283;DHT22;20542;49.828;8.746;2022-10-16T11:25:25;19.30;99.90
34283;DHT22;20542;49.828;8.746;2022-10-16T11:28:37;19.20;99.90
34283;DHT22;20542;49.828;8.746;2022-10-16T11:30:57;19.30;99.90
34283;DHT22;20542;49.828;8.746;2022-10-16T11:36:00;19.30;99.90
34283;DHT22;20542;49.828;8.746;2022-10-16T11:46:29;19.30;99.90
34283;DHT22;20542;49.828;8.746;2022-10-16T11:49:24;19.20;99.90
34283;DHT22;20542;49.828;8.746;2022-10-16T11:52:12;19.20;99.90
34283;DHT22;20542;49.828;8.746;2022-10-16T11:57:24;19.20;99.90
34283;DHT22;20542;49.828;8.746;2022-10-16T11:59:55;19.20;99.90
34283;DHT22;20542;49.828;8.746;2022-10-16T12:05:12;19.30;99.90
34283;DHT22;20542;49.828;8.746;2022-10-16T12:08:06;19.30;99.90
34283;DHT22;20542;49.828;8.746;2022-10-16T12:10:34;19.30;99.90
34283;DHT22;20542;49.828;8.746;2022-10-16T12:13:48;19.30;99.90
34283;DHT22;20542;49.828;8.746;2022-10-16T12:15:49;19.40;99.90
34283;DHT22;20542;49.828;8.746;2022-10-16T12:18:22;19.40;99.90
34283;DHT22;20542;49.828;8.746;2022-10-16T12:20:58;19.50;99.90
34283;DHT22;20542;49.828;8.746;2022-10-16T12:23:25;19.50;99.90
34283;DHT22;20542;49.828;8.746;2022-10-16T12:25:56;19.60;99.90
34283;DHT22;20542;49.828;8.746;2022-10-16T12:28:27;19.60;99.90
34283;DHT22;20542;49.828;8.746;2022-10-16T12:31:00;19.60;99.90
34283;DHT22;20542;49.828;8.746;2022-10-16T12:33:29;19.60;99.90
34283;DHT22;20542;49.828;8.746;2022-10-16T12:35:57;19.60;99.90
34283;DHT22;20542;49.828;8.746;2022-10-16T12:38:29;19.60;99.90
